sensor_id;sensor_type;location;lat;lon;timestamp;temperature;humidity
6518;DHT22;3292;48.944;9.240;2024-02-15T00:00:59;10.60;99.90
6518;DHT22;3292;48.944;9.240;2024-02-15T00:03:26;10.60;99.90
6518;DHT22;3292;48.944;9.240;2024-02-15T00:05:53;10.60;99.90
6518;DHT22;3292;48.944;9.240;2024-02-15T00:08:20;10.60;99.90
6518;DHT22;3292;48.944;9.240;2024-02-15T00:10:48;10.60;99.90
6518;DHT22;3292;48.944;9.240;2024-02-15T00:13:15;10.60;99.90
6518;DHT22;3292;48.944;9.240;2024-02-15T00:15:42;10.60;99.90
6518;DHT22;3292;48.944;9.240;2024-02-15T00:18:08;10.60;99.90
6518;DHT22;3292;48.944;9.240;2024-02-15T00:20:34;10.60;99.90
6518;DHT22;3292;48.944;9.240;2024-02-15T00:23:01;10.60;99.90
6518;DHT22;3292;48.944;9.240;2024-02-15T00:25:28;10.50;99.90
6518;DHT22;3292;48.944;9.240;2024-02-15T00:27:57;10.50;99.90
6518;DHT22;3292;48.944;9.240;2024-02-15T00:30:25;10.60;99.90
6518;DHT22;3292;48.944;9.240;2024-02-15T00:32:53;10.60;99.90
6518;DHT22;3292;48.944;9.240;2024-02-15T00:35:20;10.60;99.90
6518;DHT22;3292;48.944;9.240;2024-02-15T00:37:47;10.60;99.90
6518;DHT22;3292;48.944;9.240;2024-02-15T00:40:15;10.60;99.90
6518;DHT22;3292;48.944;9.240;2024-02-15T00:42:42;10.50;99.90
6518;DHT22;3292;48.944;9.240;2024-02-15T00:45:10;10.50;99.90
6518;DHT22;3292;48.944;9.240;2024-02-15T00:47:37;10.50;99.90
6518;DHT22;3292;48.944;9.240;2024-02-15T00:50:08;10.50;99.90
6518;DHT22;3292;48.944;9.240;2024-02-15T00:52:35;10.50;99.90
6518;DHT22;3292;48.944;9.240;2024-02-15T00:55:02;10.50;99.90
6518;DHT22;3292;48.944;9.240;2024-02-15T00:57:29;10.50;99.90
6518;DHT22;3292;48.944;9.240;2024-02-15T00:59:58;10.50;99.90
6518;DHT22;3292;48.944;9.240;2024-02-15T01:02:29;10.50;99.90
6518;DHT22;3292;48.944;9.240;2024-02-15T01:04:56;10.50;99.90
6518;DHT22;3292;48.944;9.240;2024-02-15T01:07:24;10.50;99.90
6518;DHT22;3292;48.944;9.240;2024-02-15T01:09:53;10.50;99.90
6518;DHT22;3292;48.944;9.240;2024-02-15T01:12:19;10.50;99.90
6518;DHT22;3292;48.944;9.240;2024-02-15T01:14:47;10.40;99.90
6518;DHT22;3292;48.944;9.240;2024-02-15T01:17:14;10.40;99.90
6518;DHT22;3292;48.944;9.240;2024-02-15T01:19:42;10.30;99.90
6518;DHT22;3292;48.944;9.240;2024-02-15T01:22:09;10.30;99.90
6518;DHT22;3292;48.944;9.240;2024-02-15T01:24:35;10.30;99.90
6518;DHT22;3292;48.944;9.240;2024-02-15T01:27:03;10.20;99.90
6518;DHT22;3292;48.944;9.240;2024-02-15T01:29:29;10.20;99.90
6518;DHT22;3292;48.944;9.240;2024-02-15T01:31:56;10.10;99.90
6518;DHT22;3292;48.944;9.240;2024-02-15T01:34:23;10.10;99.90
6518;DHT22;3292;48.944;9.240;2024-02-15T01:36:51;10.00;99.90
6518;DHT22;3292;48.944;9.240;2024-02-15T01:39:18;10.00;99.90
6518;DHT22;3292;48.944;9.240;2024-02-15T01:41:48;9.90;99.90
6518;DHT22;3292;48.944;9.240;2024-02-15T01:44:16;9.80;99.90
6518;DHT22;3292;48.944;9.240;2024-02-15T01:46:43;9.70;99.90
6518;DHT22;3292;48.944;9.240;2024-02-15T01:49:12;9.60;99.90
6518;DHT22;3292;48.944;9.240;2024-02-15T01:51:40;9.50;99.90
6518;DHT22;3292;48.944;9.240;2024-02-15T01:54:12;9.50;99.90
6518;DHT22;3292;48.944;9.240;2024-02-15T01:56:41;9.40;99.90
6518;DHT22;3292;48.944;9.240;2024-02-15T01:59:09;9.30;99.90
6518;DHT22;3292;48.944;9.240;2024-02-15T02:01:36;9.30;99.90
6518;DHT22;3292;48.944;9.240;2024-02-15T02:04:03;9.30;99.90
6518;DHT22;3292;48.944;9.240;2024-02-15T02:06:30;9.20;99.90
6518;DHT22;3292;48.944;9.240;2024-02-15T02:08:57;9.20;99.90
6518;DHT22;3292;48.944;9.240;2024-02-15T02:11:26;9.20;99.90
6518;DHT22;3292;48.944;9.240;2024-02-15T02:13:55;9.20;99.90
6518;DHT22;3292;48.944;9.240;2024-02-15T02:16:25;9.10;99.90
6518;DHT22;3292;48.944;9.240;2024-02-15T02:18:54;9.10;99.90
6518;DHT22;3292;48.944;9.240;2024-02-15T02:21:21;9.00;99.90
6518;DHT22;3292;48.944;9.240;2024-02-15T02:23:52;9.00;99.90
6518;DHT22;3292;48.944;9.240;2024-02-15T02:26:21;9.00;99.90
6518;DHT22;3292;48.944;9.240;2024-02-15T02:28:48;9.00;99.90
6518;DHT22;3292;48.944;9.240;2024-02-15T02:31:16;9.00;99.90
6518;DHT22;3292;48.944;9.240;2024-02-15T02:33:49;9.00;99.90
6518;DHT22;3292;48.944;9.240;2024-02-15T02:36:17;9.00;99.90
6518;DHT22;3292;48.944;9.240;2024-02-15T02:38:44;9.00;99.90
6518;DHT22;3292;48.944;9.240;2024-02-15T02:41:11;9.00;99.90
6518;DHT22;3292;48.944;9.240;2024-02-15T02:43:40;9.00;99.90
6518;DHT22;3292;48.944;9.240;2024-02-15T02:46:10;9.00;99.90
6518;DHT22;3292;48.944;9.240;2024-02-15T02:48:37;9.00;99.90
6518;DHT22;3292;48.944;9.240;2024-02-15T02:51:05;9.00;99.90
6518;DHT22;3292;48.944;9.240;2024-02-15T02:53:32;9.00;99.90
6518;DHT22;3292;48.944;9.240;2024-02-15T02:55:59;9.00;99.90
6518;DHT22;3292;48.944;9.240;2024-02-15T02:58:26;9.10;99.90
6518;DHT22;3292;48.944;9.240;2024-02-15T03:00:56;9.10;99.90
6518;DHT22;3292;48.944;9.240;2024-02-15T03:03:25;9.20;99.90
6518;DHT22;3292;48.944;9.240;2024-02-15T03:05:52;9.30;99.90
6518;DHT22;3292;48.944;9.240;2024-02-15T03:08:20;9.40;99.90
6518;DHT22;3292;48.944;9.240;2024-02-15T03:10:48;9.40;99.90
6518;DHT22;3292;48.944;9.240;2024-02-15T03:13:14;9.30;99.90
6518;DHT22;3292;48.944;9.240;2024-02-15T03:15:41;9.10;99.90
6518;DHT22;3292;48.944;9.240;2024-02-15T03:18:10;9.00;99.90
6518;DHT22;3292;48.944;9.240;2024-02-15T03:20:38;9.00;99.90
6518;DHT22;3292;48.944;9.240;2024-02-15T03:23:04;9.00;99.90
6518;DHT22;3292;48.944;9.240;2024-02-15T03:25:31;8.90;99.90
6518;DHT22;3292;48.944;9.240;2024-02-15T03:28:00;8.90;99.90
6518;DHT22;3292;48.944;9.240;2024-02-15T03:30:30;8.90;99.90
6518;DHT22;3292;48.944;9.240;2024-02-15T03:32:57;8.90;99.90
6518;DHT22;3292;48.944;9.240;2024-02-15T03:35:26;8.90;99.90
6518;DHT22;3292;48.944;9.240;2024-02-15T03:37:54;9.00;99.90
6518;DHT22;3292;48.944;9.240;2024-02-15T03:40:22;9.00;99.90
6518;DHT22;3292;48.944;9.240;2024-02-15T03:42:52;9.00;99.90
6518;DHT22;3292;48.944;9.240;2024-02-15T03:45:19;9.00;99.90
6518;DHT22;3292;48.944;9.240;2024-02-15T03:47:45;9.10;99.90
6518;DHT22;3292;48.944;9.240;2024-02-15T03:50:13;9.00;99.90
6518;DHT22;3292;48.944;9.240;2024-02-15T03:52:43;9.00;99.90
6518;DHT22;3292;48.944;9.240;2024-02-15T03:55:10;9.10;99.90
6518;DHT22;3292;48.944;9.240;2024-02-15T03:57:38;9.10;99.90
6518;DHT22;3292;48.944;9.240;2024-02-15T04:00:07;9.10;99.90
6518;DHT22;3292;48.944;9.240;2024-02-15T04:02:37;9.10;99.90
6518;DHT22;3292;48.944;9.240;2024-02-15T04:05:06;9.10;99.90
6518;DHT22;3292;48.944;9.240;2024-02-15T04:07:35;9.20;99.90
6518;DHT22;3292;48.944;9.240;2024-02-15T04:10:05;9.10;99.90
6518;DHT22;3292;48.944;9.240;2024-02-15T04:12:33;9.20;99.90
6518;DHT22;3292;48.944;9.240;2024-02-15T04:15:00;9.10;99.90
6518;DHT22;3292;48.944;9.240;2024-02-15T04:17:31;9.00;99.90
6518;DHT22;3292;48.944;9.240;2024-02-15T04:19:58;9.00;99.90
6518;DHT22;3292;48.944;9.240;2024-02-15T04:22:25;9.00;99.90
6518;DHT22;3292;48.944;9.240;2024-02-15T04:24:52;9.00;99.90
6518;DHT22;3292;48.944;9.240;2024-02-15T04:27:20;8.90;99.90
6518;DHT22;3292;48.944;9.240;2024-02-15T04:29:47;8.90;99.90
6518;DHT22;3292;48.944;9.240;2024-02-15T04:32:15;8.90;99.90
6518;DHT22;3292;48.944;9.240;2024-02-15T04:34:44;9.00;99.90
6518;DHT22;3292;48.944;9.240;2024-02-15T04:37:12;9.00;99.90
6518;DHT22;3292;48.944;9.240;2024-02-15T04:39:40;9.00;99.90
6518;DHT22;3292;48.944;9.240;2024-02-15T04:42:06;9.10;99.90
6518;DHT22;3292;48.944;9.240;2024-02-15T04:44:38;9.20;99.90
6518;DHT22;3292;48.944;9.240;2024-02-15T04:47:05;9.10;99.90
6518;DHT22;3292;48.944;9.240;2024-02-15T04:49:32;9.10;99.90
6518;DHT22;3292;48.944;9.240;2024-02-15T04:51:59;9.10;99.90
6518;DHT22;3292;48.944;9.240;2024-02-15T04:54:27;9.00;99.90
6518;DHT22;3292;48.944;9.240;2024-02-15T04:56:54;9.10;99.90
6518;DHT22;3292;48.944;9.240;2024-02-15T04:59:22;9.10;99.90
6518;DHT22;3292;48.944;9.240;2024-02-15T05:01:53;9.20;99.90
6518;DHT22;3292;48.944;9.240;2024-02-15T05:04:22;9.20;99.90
6518;DHT22;3292;48.944;9.240;2024-02-15T05:06:50;9.30;99.90
6518;DHT22;3292;48.944;9.240;2024-02-15T05:09:17;9.30;99.90
6518;DHT22;3292;48.944;9.240;2024-02-15T05:11:44;9.40;99.90
6518;DHT22;3292;48.944;9.240;2024-02-15T05:14:14;9.30;99.90
6518;DHT22;3292;48.944;9.240;2024-02-15T05:16:45;9.30;99.90
6518;DHT22;3292;48.944;9.240;2024-02-15T05:19:15;9.30;99.90
6518;DHT22;3292;48.944;9.240;2024-02-15T05:21:42;9.30;99.90
6518;DHT22;3292;48.944;9.240;2024-02-15T05:24:15;9.30;99.90
6518;DHT22;3292;48.944;9.240;2024-02-15T05:26:44;9.30;99.90
6518;DHT22;3292;48.944;9.240;2024-02-15T05:29:12;9.30;99.90
6518;DHT22;3292;48.944;9.240;2024-02-15T05:31:39;9.40;99.90
6518;DHT22;3292;48.944;9.240;2024-02-15T05:34:07;9.40;99.90
6518;DHT22;3292;48.944;9.240;2024-02-15T05:36:38;9.40;99.90
6518;DHT22;3292;48.944;9.240;2024-02-15T05:39:05;9.40;99.90
6518;DHT22;3292;48.944;9.240;2024-02-15T05:41:32;9.50;99.90
6518;DHT22;3292;48.944;9.240;2024-02-15T05:43:59;9.50;99.90
6518;DHT22;3292;48.944;9.240;2024-02-15T05:46:26;9.50;99.90
6518;DHT22;3292;48.944;9.240;2024-02-15T05:48:54;9.50;99.90
6518;DHT22;3292;48.944;9.240;2024-02-15T05:51:22;9.50;99.90
6518;DHT22;3292;48.944;9.240;2024-02-15T05:53:51;9.60;99.90
6518;DHT22;3292;48.944;9.240;2024-02-15T05:56:20;9.50;99.90
6518;DHT22;3292;48.944;9.240;2024-02-15T05:58:47;9.50;99.90
6518;DHT22;3292;48.944;9.240;2024-02-15T06:01:14;9.50;99.90
6518;DHT22;3292;48.944;9.240;2024-02-15T06:03:40;9.50;99.90
6518;DHT22;3292;48.944;9.240;2024-02-15T06:06:09;9.40;99.90
6518;DHT22;3292;48.944;9.240;2024-02-15T06:08:37;9.40;99.90
6518;DHT22;3292;48.944;9.240;2024-02-15T06:11:06;9.40;99.90
6518;DHT22;3292;48.944;9.240;2024-02-15T06:13:34;9.40;99.90
6518;DHT22;3292;48.944;9.240;2024-02-15T06:16:01;9.40;99.90
6518;DHT22;3292;48.944;9.240;2024-02-15T06:18:34;9.50;99.90
6518;DHT22;3292;48.944;9.240;2024-02-15T06:21:01;9.50;99.90
6518;DHT22;3292;48.944;9.240;2024-02-15T06:23:28;9.50;99.90
6518;DHT22;3292;48.944;9.240;2024-02-15T06:25:56;9.50;99.90
6518;DHT22;3292;48.944;9.240;2024-02-15T06:28:25;9.50;99.90
6518;DHT22;3292;48.944;9.240;2024-02-15T06:31:09;9.40;99.90
6518;DHT22;3292;48.944;9.240;2024-02-15T06:33:54;9.40;99.90
6518;DHT22;3292;48.944;9.240;2024-02-15T06:36:39;9.40;99.90
6518;DHT22;3292;48.944;9.240;2024-02-15T06:39:24;9.40;99.90
6518;DHT22;3292;48.944;9.240;2024-02-15T06:42:07;9.40;99.90
6518;DHT22;3292;48.944;9.240;2024-02-15T06:44:35;9.40;99.90
6518;DHT22;3292;48.944;9.240;2024-02-15T06:47:02;9.40;99.90
6518;DHT22;3292;48.944;9.240;2024-02-15T06:49:29;9.50;99.90
6518;DHT22;3292;48.944;9.240;2024-02-15T06:51:56;9.50;99.90
6518;DHT22;3292;48.944;9.240;2024-02-15T06:54:24;9.50;99.90
6518;DHT22;3292;48.944;9.240;2024-02-15T06:56:51;9.50;99.90
6518;DHT22;3292;48.944;9.240;2024-02-15T06:59:20;9.60;99.90
6518;DHT22;3292;48.944;9.240;2024-02-15T07:01:52;9.50;99.90
6518;DHT22;3292;48.944;9.240;2024-02-15T07:04:19;9.50;99.90
6518;DHT22;3292;48.944;9.240;2024-02-15T07:06:47;9.50;99.90
6518;DHT22;3292;48.944;9.240;2024-02-15T07:09:15;9.60;99.90
6518;DHT22;3292;48.944;9.240;2024-02-15T07:11:43;9.70;99.90
6518;DHT22;3292;48.944;9.240;2024-02-15T07:14:11;9.70;99.90
6518;DHT22;3292;48.944;9.240;2024-02-15T07:16:38;9.80;99.90
6518;DHT22;3292;48.944;9.240;2024-02-15T07:19:07;9.90;99.90
6518;DHT22;3292;48.944;9.240;2024-02-15T07:21:34;9.90;99.90
6518;DHT22;3292;48.944;9.240;2024-02-15T07:24:01;10.00;99.90
6518;DHT22;3292;48.944;9.240;2024-02-15T07:26:30;10.00;99.90
6518;DHT22;3292;48.944;9.240;2024-02-15T07:28:58;10.10;99.90
6518;DHT22;3292;48.944;9.240;2024-02-15T07:31:28;10.00;99.90
6518;DHT22;3292;48.944;9.240;2024-02-15T07:33:55;10.00;99.90
6518;DHT22;3292;48.944;9.240;2024-02-15T07:36:24;10.10;99.90
6518;DHT22;3292;48.944;9.240;2024-02-15T07:38:53;10.10;99.90
6518;DHT22;3292;48.944;9.240;2024-02-15T07:41:23;10.10;99.90
6518;DHT22;3292;48.944;9.240;2024-02-15T07:43:51;10.20;99.90
6518;DHT22;3292;48.944;9.240;2024-02-15T07:46:20;10.20;99.90
6518;DHT22;3292;48.944;9.240;2024-02-15T07:48:47;10.20;99.90
6518;DHT22;3292;48.944;9.240;2024-02-15T07:51:15;10.30;99.90
6518;DHT22;3292;48.944;9.240;2024-02-15T07:53:45;10.30;99.90
6518;DHT22;3292;48.944;9.240;2024-02-15T07:56:12;10.40;99.90
6518;DHT22;3292;48.944;9.240;2024-02-15T07:58:39;10.50;99.90
6518;DHT22;3292;48.944;9.240;2024-02-15T08:01:08;10.60;99.90
6518;DHT22;3292;48.944;9.240;2024-02-15T08:03:34;10.80;99.90
6518;DHT22;3292;48.944;9.240;2024-02-15T08:06:02;10.90;99.90
6518;DHT22;3292;48.944;9.240;2024-02-15T08:08:32;11.10;99.90
6518;DHT22;3292;48.944;9.240;2024-02-15T08:11:02;11.10;99.90
6518;DHT22;3292;48.944;9.240;2024-02-15T08:13:29;11.20;99.90
6518;DHT22;3292;48.944;9.240;2024-02-15T08:15:56;11.30;99.90
6518;DHT22;3292;48.944;9.240;2024-02-15T08:18:23;11.40;99.90
6518;DHT22;3292;48.944;9.240;2024-02-15T08:20:51;11.50;99.90
6518;DHT22;3292;48.944;9.240;2024-02-15T08:23:18;11.70;99.90
6518;DHT22;3292;48.944;9.240;2024-02-15T08:25:45;11.80;99.90
6518;DHT22;3292;48.944;9.240;2024-02-15T08:28:14;11.80;99.90
6518;DHT22;3292;48.944;9.240;2024-02-15T08:30:41;11.90;99.90
6518;DHT22;3292;48.944;9.240;2024-02-15T08:33:08;11.80;99.90
6518;DHT22;3292;48.944;9.240;2024-02-15T08:35:36;11.80;99.90
6518;DHT22;3292;48.944;9.240;2024-02-15T08:38:05;11.80;99.90
6518;DHT22;3292;48.944;9.240;2024-02-15T08:40:32;11.90;99.90
6518;DHT22;3292;48.944;9.240;2024-02-15T08:42:59;11.90;99.90
6518;DHT22;3292;48.944;9.240;2024-02-15T08:45:27;12.00;99.90
6518;DHT22;3292;48.944;9.240;2024-02-15T08:47:54;12.10;99.90
6518;DHT22;3292;48.944;9.240;2024-02-15T08:50:21;12.10;99.90
6518;DHT22;3292;48.944;9.240;2024-02-15T08:52:49;12.20;99.90
6518;DHT22;3292;48.944;9.240;2024-02-15T08:55:16;12.20;99.90
6518;DHT22;3292;48.944;9.240;2024-02-15T08:57:43;12.30;99.90
6518;DHT22;3292;48.944;9.240;2024-02-15T09:00:11;12.40;99.90
6518;DHT22;3292;48.944;9.240;2024-02-15T09:02:43;12.40;99.90
6518;DHT22;3292;48.944;9.240;2024-02-15T09:07:51;12.60;99.90
6518;DHT22;3292;48.944;9.240;2024-02-15T09:10:18;12.70;99.90
6518;DHT22;3292;48.944;9.240;2024-02-15T09:12:48;12.80;99.90
6518;DHT22;3292;48.944;9.240;2024-02-15T09:15:15;12.90;99.90
6518;DHT22;3292;48.944;9.240;2024-02-15T09:17:43;12.90;99.90
6518;DHT22;3292;48.944;9.240;2024-02-15T09:20:12;13.10;99.90
6518;DHT22;3292;48.944;9.240;2024-02-15T09:22:41;13.30;99.90
6518;DHT22;3292;48.944;9.240;2024-02-15T09:25:10;13.40;99.90
6518;DHT22;3292;48.944;9.240;2024-02-15T09:27:38;13.60;99.90
6518;DHT22;3292;48.944;9.240;2024-02-15T09:30:06;13.80;99.90
6518;DHT22;3292;48.944;9.240;2024-02-15T09:32:35;14.00;99.90
6518;DHT22;3292;48.944;9.240;2024-02-15T09:35:02;14.10;99.90
6518;DHT22;3292;48.944;9.240;2024-02-15T09:37:29;14.20;99.90
6518;DHT22;3292;48.944;9.240;2024-02-15T09:39:55;14.30;99.90
6518;DHT22;3292;48.944;9.240;2024-02-15T09:42:23;14.20;99.90
6518;DHT22;3292;48.944;9.240;2024-02-15T09:44:51;14.40;99.90
6518;DHT22;3292;48.944;9.240;2024-02-15T09:47:18;14.50;99.90
6518;DHT22;3292;48.944;9.240;2024-02-15T09:49:45;14.50;99.90
6518;DHT22;3292;48.944;9.240;2024-02-15T09:52:13;14.40;99.90
6518;DHT22;3292;48.944;9.240;2024-02-15T09:54:42;14.60;99.90
6518;DHT22;3292;48.944;9.240;2024-02-15T09:57:10;14.80;99.90
6518;DHT22;3292;48.944;9.240;2024-02-15T09:59:39;14.90;99.90
6518;DHT22;3292;48.944;9.240;2024-02-15T10:02:07;15.10;99.90
6518;DHT22;3292;48.944;9.240;2024-02-15T10:04:37;15.10;99.90
6518;DHT22;3292;48.944;9.240;2024-02-15T10:07:04;15.40;99.90
6518;DHT22;3292;48.944;9.240;2024-02-15T10:09:31;15.50;99.90
6518;DHT22;3292;48.944;9.240;2024-02-15T10:11:59;15.50;99.90
6518;DHT22;3292;48.944;9.240;2024-02-15T10:14:27;15.40;99.90
6518;DHT22;3292;48.944;9.240;2024-02-15T10:16:55;15.50;99.90
6518;DHT22;3292;48.944;9.240;2024-02-15T10:19:22;15.30;99.90
6518;DHT22;3292;48.944;9.240;2024-02-15T10:21:51;15.40;99.90
6518;DHT22;3292;48.944;9.240;2024-02-15T10:24:21;15.70;99.90
6518;DHT22;3292;48.944;9.240;2024-02-15T10:26:50;15.90;99.90
6518;DHT22;3292;48.944;9.240;2024-02-15T10:29:18;16.00;99.90
6518;DHT22;3292;48.944;9.240;2024-02-15T10:31:53;16.00;99.90
6518;DHT22;3292;48.944;9.240;2024-02-15T10:34:21;16.20;99.90
6518;DHT22;3292;48.944;9.240;2024-02-15T10:36:49;16.20;99.90
6518;DHT22;3292;48.944;9.240;2024-02-15T10:39:16;16.10;99.90
6518;DHT22;3292;48.944;9.240;2024-02-15T10:41:49;16.30;99.90
6518;DHT22;3292;48.944;9.240;2024-02-15T10:44:17;16.50;99.90
6518;DHT22;3292;48.944;9.240;2024-02-15T10:46:48;16.40;99.90
6518;DHT22;3292;48.944;9.240;2024-02-15T10:49:17;16.40;99.90
6518;DHT22;3292;48.944;9.240;2024-02-15T10:51:54;16.30;99.90
6518;DHT22;3292;48.944;9.240;2024-02-15T10:54:43;16.20;99.90
6518;DHT22;3292;48.944;9.240;2024-02-15T10:57:13;16.30;99.90
6518;DHT22;3292;48.944;9.240;2024-02-15T10:59:50;16.50;99.90
6518;DHT22;3292;48.944;9.240;2024-02-15T11:02:30;16.50;99.90
6518;DHT22;3292;48.944;9.240;2024-02-15T11:05:02;16.70;99.90
6518;DHT22;3292;48.944;9.240;2024-02-15T11:07:32;16.80;99.90
6518;DHT22;3292;48.944;9.240;2024-02-15T11:09:59;16.60;99.90
6518;DHT22;3292;48.944;9.240;2024-02-15T11:12:28;16.60;99.90
6518;DHT22;3292;48.944;9.240;2024-02-15T11:14:56;16.70;99.90
6518;DHT22;3292;48.944;9.240;2024-02-15T11:17:45;16.70;99.90
6518;DHT22;3292;48.944;9.240;2024-02-15T11:20:45;16.90;99.90
6518;DHT22;3292;48.944;9.240;2024-02-15T11:23:23;16.90;99.90
6518;DHT22;3292;48.944;9.240;2024-02-15T11:25:52;17.00;99.90
6518;DHT22;3292;48.944;9.240;2024-02-15T11:28:36;17.00;99.90
6518;DHT22;3292;48.944;9.240;2024-02-15T11:31:06;17.10;99.90
6518;DHT22;3292;48.944;9.240;2024-02-15T11:33:34;16.80;99.90
6518;DHT22;3292;48.944;9.240;2024-02-15T11:36:05;16.80;99.90
6518;DHT22;3292;48.944;9.240;2024-02-15T11:38:34;16.90;99.90
6518;DHT22;3292;48.944;9.240;2024-02-15T11:41:03;16.80;99.90
6518;DHT22;3292;48.944;9.240;2024-02-15T11:43:49;16.80;99.90
6518;DHT22;3292;48.944;9.240;2024-02-15T11:46:21;16.90;99.90
6518;DHT22;3292;48.944;9.240;2024-02-15T11:48:52;17.00;99.90
6518;DHT22;3292;48.944;9.240;2024-02-15T11:51:26;17.10;99.90
6518;DHT22;3292;48.944;9.240;2024-02-15T11:54:06;17.10;99.90
6518;DHT22;3292;48.944;9.240;2024-02-15T11:56:49;16.80;99.90
6518;DHT22;3292;48.944;9.240;2024-02-15T11:59:19;16.80;99.90
6518;DHT22;3292;48.944;9.240;2024-02-15T12:01:57;16.70;99.90
6518;DHT22;3292;48.944;9.240;2024-02-15T12:04:42;16.70;99.90
6518;DHT22;3292;48.944;9.240;2024-02-15T12:07:26;16.60;99.90
6518;DHT22;3292;48.944;9.240;2024-02-15T12:10:17;16.50;99.90
6518;DHT22;3292;48.944;9.240;2024-02-15T12:13:01;16.60;99.90
6518;DHT22;3292;48.944;9.240;2024-02-15T12:15:58;16.70;99.90
6518;DHT22;3292;48.944;9.240;2024-02-15T12:18:43;16.70;99.90
6518;DHT22;3292;48.944;9.240;2024-02-15T12:21:14;16.50;99.90
6518;DHT22;3292;48.944;9.240;2024-02-15T12:23:43;16.60;99.90
6518;DHT22;3292;48.944;9.240;2024-02-15T12:26:12;16.70;99.90
6518;DHT22;3292;48.944;9.240;2024-02-15T12:28:41;16.80;99.90
6518;DHT22;3292;48.944;9.240;2024-02-15T12:31:09;16.80;99.90
6518;DHT22;3292;48.944;9.240;2024-02-15T12:33:39;16.60;99.90
6518;DHT22;3292;48.944;9.240;2024-02-15T12:36:06;16.60;99.90
6518;DHT22;3292;48.944;9.240;2024-02-15T12:38:33;16.70;99.90
6518;DHT22;3292;48.944;9.240;2024-02-15T12:41:03;16.50;99.90
6518;DHT22;3292;48.944;9.240;2024-02-15T12:43:31;16.40;99.90
6518;DHT22;3292;48.944;9.240;2024-02-15T12:45:58;16.40;99.90
6518;DHT22;3292;48.944;9.240;2024-02-15T12:48:25;16.30;99.90
6518;DHT22;3292;48.944;9.240;2024-02-15T12:50:52;16.20;99.90
6518;DHT22;3292;48.944;9.240;2024-02-15T12:53:22;16.30;99.90
6518;DHT22;3292;48.944;9.240;2024-02-15T12:55:55;16.40;99.90
6518;DHT22;3292;48.944;9.240;2024-02-15T12:58:22;16.40;99.90
6518;DHT22;3292;48.944;9.240;2024-02-15T13:00:55;16.50;99.90
6518;DHT22;3292;48.944;9.240;2024-02-15T13:03:24;16.60;99.90
6518;DHT22;3292;48.944;9.240;2024-02-15T13:05:51;16.70;99.90
6518;DHT22;3292;48.944;9.240;2024-02-15T13:08:17;16.80;99.90
6518;DHT22;3292;48.944;9.240;2024-02-15T13:10:45;16.90;99.90
6518;DHT22;3292;48.944;9.240;2024-02-15T13:13:13;16.80;99.90
6518;DHT22;3292;48.944;9.240;2024-02-15T13:15:41;16.90;99.90
6518;DHT22;3292;48.944;9.240;2024-02-15T13:18:10;16.90;99.90
6518;DHT22;3292;48.944;9.240;2024-02-15T13:20:39;17.00;99.90
6518;DHT22;3292;48.944;9.240;2024-02-15T13:23:07;16.90;99.90
6518;DHT22;3292;48.944;9.240;2024-02-15T13:25:35;17.00;99.90
6518;DHT22;3292;48.944;9.240;2024-02-15T13:28:03;17.00;99.90
6518;DHT22;3292;48.944;9.240;2024-02-15T13:30:30;17.00;99.90
6518;DHT22;3292;48.944;9.240;2024-02-15T13:32:57;17.00;99.90
6518;DHT22;3292;48.944;9.240;2024-02-15T13:35:26;16.80;99.90
6518;DHT22;3292;48.944;9.240;2024-02-15T13:37:53;16.90;99.90
6518;DHT22;3292;48.944;9.240;2024-02-15T13:40:21;16.90;99.90
6518;DHT22;3292;48.944;9.240;2024-02-15T13:42:50;16.90;99.90
6518;DHT22;3292;48.944;9.240;2024-02-15T13:45:18;16.80;99.90
6518;DHT22;3292;48.944;9.240;2024-02-15T13:47:46;16.80;99.90
6518;DHT22;3292;48.944;9.240;2024-02-15T13:50:13;16.70;99.90
6518;DHT22;3292;48.944;9.240;2024-02-15T13:52:42;16.70;99.90
6518;DHT22;3292;48.944;9.240;2024-02-15T13:55:10;16.70;99.90
6518;DHT22;3292;48.944;9.240;2024-02-15T13:57:38;16.70;99.90
6518;DHT22;3292;48.944;9.240;2024-02-15T14:00:07;16.70;99.90
6518;DHT22;3292;48.944;9.240;2024-02-15T14:02:39;16.80;99.90
6518;DHT22;3292;48.944;9.240;2024-02-15T14:05:06;16.80;99.90
6518;DHT22;3292;48.944;9.240;2024-02-15T14:07:34;16.80;99.90
6518;DHT22;3292;48.944;9.240;2024-02-15T14:10:03;16.90;99.90
6518;DHT22;3292;48.944;9.240;2024-02-15T14:12:30;16.90;99.90
6518;DHT22;3292;48.944;9.240;2024-02-15T14:14:57;17.00;99.90
6518;DHT22;3292;48.944;9.240;2024-02-15T14:17:25;16.90;99.90
6518;DHT22;3292;48.944;9.240;2024-02-15T14:19:53;16.80;99.90
6518;DHT22;3292;48.944;9.240;2024-02-15T14:22:20;16.90;99.90
6518;DHT22;3292;48.944;9.240;2024-02-15T14:24:49;16.80;99.90
6518;DHT22;3292;48.944;9.240;2024-02-15T14:27:17;16.80;99.90
6518;DHT22;3292;48.944;9.240;2024-02-15T14:29:44;16.70;99.90
6518;DHT22;3292;48.944;9.240;2024-02-15T14:32:31;16.80;99.90
6518;DHT22;3292;48.944;9.240;2024-02-15T14:35:20;16.80;99.90
6518;DHT22;3292;48.944;9.240;2024-02-15T14:37:47;16.80;99.90
6518;DHT22;3292;48.944;9.240;2024-02-15T14:40:14;16.70;99.90
6518;DHT22;3292;48.944;9.240;2024-02-15T14:42:42;16.60;99.90
6518;DHT22;3292;48.944;9.240;2024-02-15T14:45:10;16.50;99.90
6518;DHT22;3292;48.944;9.240;2024-02-15T14:47:37;16.50;99.90
6518;DHT22;3292;48.944;9.240;2024-02-15T14:50:04;16.50;99.90
6518;DHT22;3292;48.944;9.240;2024-02-15T14:52:34;16.50;99.90
6518;DHT22;3292;48.944;9.240;2024-02-15T14:55:01;16.50;99.90
6518;DHT22;3292;48.944;9.240;2024-02-15T14:57:30;16.60;99.90
6518;DHT22;3292;48.944;9.240;2024-02-15T14:59:59;16.60;99.90
6518;DHT22;3292;48.944;9.240;2024-02-15T15:02:25;16.60;99.90
6518;DHT22;3292;48.944;9.240;2024-02-15T15:04:52;16.50;99.90
6518;DHT22;3292;48.944;9.240;2024-02-15T15:07:45;16.60;99.90
6518;DHT22;3292;48.944;9.240;2024-02-15T15:10:29;16.60;99.90
6518;DHT22;3292;48.944;9.240;2024-02-15T15:13:13;16.50;99.90
6518;DHT22;3292;48.944;9.240;2024-02-15T15:15:41;16.50;99.90
6518;DHT22;3292;48.944;9.240;2024-02-15T15:18:08;16.50;99.90
6518;DHT22;3292;48.944;9.240;2024-02-15T15:20:36;16.50;99.90
6518;DHT22;3292;48.944;9.240;2024-02-15T15:23:04;16.50;99.90
6518;DHT22;3292;48.944;9.240;2024-02-15T15:25:32;16.50;99.90
6518;DHT22;3292;48.944;9.240;2024-02-15T15:27:59;16.50;99.90
6518;DHT22;3292;48.944;9.240;2024-02-15T15:30:26;16.50;99.90
6518;DHT22;3292;48.944;9.240;2024-02-15T15:33:03;16.40;99.90
6518;DHT22;3292;48.944;9.240;2024-02-15T15:35:30;16.40;99.90
6518;DHT22;3292;48.944;9.240;2024-02-15T15:37:57;16.40;99.90
6518;DHT22;3292;48.944;9.240;2024-02-15T15:40:24;16.30;99.90
6518;DHT22;3292;48.944;9.240;2024-02-15T15:42:51;16.30;99.90
6518;DHT22;3292;48.944;9.240;2024-02-15T15:45:20;16.30;99.90
6518;DHT22;3292;48.944;9.240;2024-02-15T15:47:48;16.20;99.90
6518;DHT22;3292;48.944;9.240;2024-02-15T15:50:16;16.10;99.90
6518;DHT22;3292;48.944;9.240;2024-02-15T15:52:43;16.10;99.90
6518;DHT22;3292;48.944;9.240;2024-02-15T15:55:11;16.10;99.90
6518;DHT22;3292;48.944;9.240;2024-02-15T15:57:38;16.00;99.90
6518;DHT22;3292;48.944;9.240;2024-02-15T16:00:07;16.00;99.90
6518;DHT22;3292;48.944;9.240;2024-02-15T16:02:38;15.90;99.90
6518;DHT22;3292;48.944;9.240;2024-02-15T16:05:05;15.90;99.90
6518;DHT22;3292;48.944;9.240;2024-02-15T16:07:34;15.80;99.90
6518;DHT22;3292;48.944;9.240;2024-02-15T16:10:01;15.80;99.90
6518;DHT22;3292;48.944;9.240;2024-02-15T16:12:28;15.90;99.90
6518;DHT22;3292;48.944;9.240;2024-02-15T16:14:55;15.90;99.90
6518;DHT22;3292;48.944;9.240;2024-02-15T16:17:22;16.00;99.90
6518;DHT22;3292;48.944;9.240;2024-02-15T16:19:49;15.90;99.90
6518;DHT22;3292;48.944;9.240;2024-02-15T16:22:15;15.90;99.90